sensor_id;sensor_type;location;lat;lon;timestamp;P1;durP1;ratioP1;P2;durP2;ratioP2
23720;SDS011;42950;52.134;5.578;2023-03-04T00:01:24;19.33;;;2.80;;
23720;SDS011;42950;52.134;5.578;2023-03-04T00:03:50;22.92;;;2.85;;
23720;SDS011;42950;52.134;5.578;2023-03-04T00:06:16;20.23;;;2.80;;
23720;SDS011;42950;52.134;5.578;2023-03-04T00:08:41;20.20;;;2.50;;
23720;SDS011;42950;52.134;5.578;2023-03-04T00:11:07;13.77;;;2.17;;
23720;SDS011;42950;52.134;5.578;2023-03-04T00:13:32;15.13;;;2.47;;
23720;SDS011;42950;52.134;5.578;2023-03-04T00:15:58;17.75;;;2.67;;
23720;SDS011;42950;52.134;5.578;2023-03-04T00:18:23;14.27;;;2.60;;
23720;SDS011;42950;52.134;5.578;2023-03-04T00:20:49;16.70;;;2.58;;
23720;SDS011;42950;52.134;5.578;2023-03-04T00:23:15;18.45;;;2.45;;
23720;SDS011;42950;52.134;5.578;2023-03-04T00:25:41;16.48;;;2.60;;
23720;SDS011;42950;52.134;5.578;2023-03-04T00:28:06;16.20;;;2.33;;
23720;SDS011;42950;52.134;5.578;2023-03-04T00:30:32;14.15;;;2.70;;
23720;SDS011;42950;52.134;5.578;2023-03-04T00:32:57;22.65;;;2.63;;
23720;SDS011;42950;52.134;5.578;2023-03-04T00:35:23;18.33;;;2.30;;
23720;SDS011;42950;52.134;5.578;2023-03-04T00:37:48;13.90;;;2.08;;
23720;SDS011;42950;52.134;5.578;2023-03-04T00:40:14;19.10;;;2.78;;
23720;SDS011;42950;52.134;5.578;2023-03-04T00:42:40;16.13;;;3.20;;
23720;SDS011;42950;52.134;5.578;2023-03-04T00:45:06;18.15;;;2.35;;
23720;SDS011;42950;52.134;5.578;2023-03-04T00:47:32;21.20;;;2.60;;
23720;SDS011;42950;52.134;5.578;2023-03-04T00:49:57;14.98;;;2.60;;
23720;SDS011;42950;52.134;5.578;2023-03-04T00:52:23;15.43;;;3.13;;
23720;SDS011;42950;52.134;5.578;2023-03-04T00:54:48;16.02;;;2.28;;
23720;SDS011;42950;52.134;5.578;2023-03-04T00:57:14;12.05;;;2.05;;
23720;SDS011;42950;52.134;5.578;2023-03-04T00:59:39;13.75;;;2.47;;
23720;SDS011;42950;52.134;5.578;2023-03-04T01:02:07;14.10;;;2.30;;
23720;SDS011;42950;52.134;5.578;2023-03-04T01:04:33;19.02;;;2.53;;
23720;SDS011;42950;52.134;5.578;2023-03-04T01:06:59;13.77;;;2.38;;
23720;SDS011;42950;52.134;5.578;2023-03-04T01:09:24;13.52;;;2.53;;
23720;SDS011;42950;52.134;5.578;2023-03-04T01:11:50;11.70;;;2.58;;
23720;SDS011;42950;52.134;5.578;2023-03-04T01:14:16;19.20;;;2.55;;
23720;SDS011;42950;52.134;5.578;2023-03-04T01:16:42;13.88;;;2.25;;
23720;SDS011;42950;52.134;5.578;2023-03-04T01:19:08;15.07;;;2.78;;
23720;SDS011;42950;52.134;5.578;2023-03-04T01:21:33;17.67;;;2.85;;
23720;SDS011;42950;52.134;5.578;2023-03-04T01:23:59;16.17;;;2.20;;
23720;SDS011;42950;52.134;5.578;2023-03-04T01:26:24;18.63;;;2.42;;
23720;SDS011;42950;52.134;5.578;2023-03-04T01:28:50;16.17;;;2.22;;
23720;SDS011;42950;52.134;5.578;2023-03-04T01:31:16;15.82;;;2.05;;
23720;SDS011;42950;52.134;5.578;2023-03-04T01:33:41;14.77;;;2.28;;
23720;SDS011;42950;52.134;5.578;2023-03-04T01:36:07;11.15;;;2.05;;
23720;SDS011;42950;52.134;5.578;2023-03-04T01:38:32;12.80;;;2.42;;
23720;SDS011;42950;52.134;5.578;2023-03-04T01:40:58;14.30;;;2.08;;
23720;SDS011;42950;52.134;5.578;2023-03-04T01:43:25;16.38;;;2.17;;
23720;SDS011;42950;52.134;5.578;2023-03-04T01:45:53;12.80;;;2.58;;
23720;SDS011;42950;52.134;5.578;2023-03-04T01:48:21;17.65;;;2.30;;
23720;SDS011;42950;52.134;5.578;2023-03-04T01:50:52;11.73;;;2.03;;
23720;SDS011;42950;52.134;5.578;2023-03-04T01:53:22;16.80;;;2.33;;
23720;SDS011;42950;52.134;5.578;2023-03-04T01:55:54;18.67;;;2.40;;
23720;SDS011;42950;52.134;5.578;2023-03-04T01:58:23;14.52;;;2.55;;
23720;SDS011;42950;52.134;5.578;2023-03-04T02:00:52;11.88;;;2.42;;
23720;SDS011;42950;52.134;5.578;2023-03-04T02:03:17;17.23;;;2.47;;
23720;SDS011;42950;52.134;5.578;2023-03-04T02:05:44;14.77;;;2.00;;
23720;SDS011;42950;52.134;5.578;2023-03-04T02:08:13;18.17;;;2.55;;
23720;SDS011;42950;52.134;5.578;2023-03-04T02:10:41;16.20;;;2.83;;
23720;SDS011;42950;52.134;5.578;2023-03-04T02:13:08;10.73;;;2.38;;
23720;SDS011;42950;52.134;5.578;2023-03-04T02:15:33;14.40;;;2.15;;
23720;SDS011;42950;52.134;5.578;2023-03-04T02:17:59;14.18;;;2.10;;
23720;SDS011;42950;52.134;5.578;2023-03-04T02:21:14;15.18;;;2.50;;
23720;SDS011;42950;52.134;5.578;2023-03-04T02:26:18;16.35;;;2.03;;
23720;SDS011;42950;52.134;5.578;2023-03-04T02:28:47;12.68;;;2.03;;
23720;SDS011;42950;52.134;5.578;2023-03-04T02:33:52;15.15;;;2.13;;
23720;SDS011;42950;52.134;5.578;2023-03-04T02:36:20;20.88;;;2.78;;
23720;SDS011;42950;52.134;5.578;2023-03-04T02:38:47;15.07;;;2.33;;
23720;SDS011;42950;52.134;5.578;2023-03-04T02:41:18;12.07;;;2.42;;
23720;SDS011;42950;52.134;5.578;2023-03-04T02:43:52;18.38;;;2.50;;
23720;SDS011;42950;52.134;5.578;2023-03-04T02:46:18;21.58;;;2.88;;
23720;SDS011;42950;52.134;5.578;2023-03-04T02:48:44;10.00;;;2.20;;
23720;SDS011;42950;52.134;5.578;2023-03-04T02:51:10;12.45;;;2.00;;
23720;SDS011;42950;52.134;5.578;2023-03-04T02:53:36;17.70;;;2.47;;
23720;SDS011;42950;52.134;5.578;2023-03-04T02:56:01;13.18;;;2.05;;
23720;SDS011;42950;52.134;5.578;2023-03-04T02:58:27;18.52;;;2.67;;
23720;SDS011;42950;52.134;5.578;2023-03-04T03:00:53;15.65;;;2.22;;
23720;SDS011;42950;52.134;5.578;2023-03-04T03:03:19;19.65;;;2.20;;
23720;SDS011;42950;52.134;5.578;2023-03-04T03:05:44;15.07;;;2.13;;
23720;SDS011;42950;52.134;5.578;2023-03-04T03:08:10;13.75;;;1.95;;
23720;SDS011;42950;52.134;5.578;2023-03-04T03:10:35;16.42;;;2.00;;
23720;SDS011;42950;52.134;5.578;2023-03-04T03:13:01;14.93;;;2.33;;
23720;SDS011;42950;52.134;5.578;2023-03-04T03:15:26;10.77;;;2.17;;
23720;SDS011;42950;52.134;5.578;2023-03-04T03:17:52;12.77;;;1.70;;
23720;SDS011;42950;52.134;5.578;2023-03-04T03:20:17;13.48;;;1.60;;
23720;SDS011;42950;52.134;5.578;2023-03-04T03:22:43;12.57;;;1.88;;
23720;SDS011;42950;52.134;5.578;2023-03-04T03:25:10;9.40;;;1.55;;
23720;SDS011;42950;52.134;5.578;2023-03-04T03:27:37;13.38;;;1.75;;
23720;SDS011;42950;52.134;5.578;2023-03-04T03:30:03;16.40;;;2.17;;
23720;SDS011;42950;52.134;5.578;2023-03-04T03:32:30;10.15;;;1.83;;
23720;SDS011;42950;52.134;5.578;2023-03-04T03:34:55;11.40;;;1.80;;
23720;SDS011;42950;52.134;5.578;2023-03-04T03:37:21;12.32;;;2.03;;
23720;SDS011;42950;52.134;5.578;2023-03-04T03:39:46;9.27;;;1.63;;
23720;SDS011;42950;52.134;5.578;2023-03-04T03:42:12;10.25;;;2.13;;
23720;SDS011;42950;52.134;5.578;2023-03-04T03:44:38;11.50;;;2.35;;
23720;SDS011;42950;52.134;5.578;2023-03-04T03:47:03;15.02;;;1.88;;
23720;SDS011;42950;52.134;5.578;2023-03-04T03:49:29;11.43;;;2.03;;
23720;SDS011;42950;52.134;5.578;2023-03-04T03:51:54;10.25;;;2.00;;
23720;SDS011;42950;52.134;5.578;2023-03-04T03:54:20;21.27;;;2.58;;
23720;SDS011;42950;52.134;5.578;2023-03-04T03:56:45;14.95;;;2.10;;
23720;SDS011;42950;52.134;5.578;2023-03-04T03:59:11;13.48;;;2.10;;
23720;SDS011;42950;52.134;5.578;2023-03-04T04:01:36;14.52;;;1.83;;
23720;SDS011;42950;52.134;5.578;2023-03-04T04:04:02;13.45;;;1.90;;
23720;SDS011;42950;52.134;5.578;2023-03-04T04:06:28;11.63;;;1.77;;
23720;SDS011;42950;52.134;5.578;2023-03-04T04:08:54;12.55;;;1.88;;
23720;SDS011;42950;52.134;5.578;2023-03-04T04:11:19;11.50;;;1.48;;
23720;SDS011;42950;52.134;5.578;2023-03-04T04:13:45;9.73;;;1.85;;
23720;SDS011;42950;52.134;5.578;2023-03-04T04:16:11;14.48;;;1.70;;
23720;SDS011;42950;52.134;5.578;2023-03-04T04:18:36;9.80;;;1.45;;
23720;SDS011;42950;52.134;5.578;2023-03-04T04:21:02;10.00;;;1.98;;
23720;SDS011;42950;52.134;5.578;2023-03-04T04:23:28;10.38;;;1.63;;
23720;SDS011;42950;52.134;5.578;2023-03-04T04:25:54;11.77;;;1.63;;
23720;SDS011;42950;52.134;5.578;2023-03-04T04:28:20;12.13;;;1.40;;
23720;SDS011;42950;52.134;5.578;2023-03-04T04:30:46;9.95;;;1.52;;
23720;SDS011;42950;52.134;5.578;2023-03-04T04:33:12;13.95;;;2.33;;
23720;SDS011;42950;52.134;5.578;2023-03-04T04:35:37;6.95;;;1.77;;
23720;SDS011;42950;52.134;5.578;2023-03-04T04:38:04;9.63;;;1.70;;
23720;SDS011;42950;52.134;5.578;2023-03-04T04:40:30;9.48;;;1.63;;
23720;SDS011;42950;52.134;5.578;2023-03-04T04:42:55;10.15;;;1.80;;
23720;SDS011;42950;52.134;5.578;2023-03-04T04:45:21;10.32;;;1.58;;
23720;SDS011;42950;52.134;5.578;2023-03-04T04:47:48;7.63;;;1.50;;
23720;SDS011;42950;52.134;5.578;2023-03-04T04:50:15;7.05;;;1.48;;
23720;SDS011;42950;52.134;5.578;2023-03-04T04:52:40;11.02;;;2.00;;
23720;SDS011;42950;52.134;5.578;2023-03-04T04:55:06;8.13;;;1.50;;
23720;SDS011;42950;52.134;5.578;2023-03-04T04:57:32;7.55;;;1.75;;
23720;SDS011;42950;52.134;5.578;2023-03-04T04:59:58;9.70;;;1.60;;
23720;SDS011;42950;52.134;5.578;2023-03-04T05:02:24;9.95;;;1.70;;
23720;SDS011;42950;52.134;5.578;2023-03-04T05:04:49;10.35;;;1.80;;
23720;SDS011;42950;52.134;5.578;2023-03-04T05:07:15;10.43;;;1.80;;
23720;SDS011;42950;52.134;5.578;2023-03-04T05:09:41;9.98;;;1.75;;
23720;SDS011;42950;52.134;5.578;2023-03-04T05:12:06;8.82;;;1.48;;
23720;SDS011;42950;52.134;5.578;2023-03-04T05:14:32;10.57;;;1.40;;
23720;SDS011;42950;52.134;5.578;2023-03-04T05:16:57;10.50;;;1.88;;
23720;SDS011;42950;52.134;5.578;2023-03-04T05:19:23;10.60;;;1.63;;
23720;SDS011;42950;52.134;5.578;2023-03-04T05:21:48;12.85;;;1.90;;
23720;SDS011;42950;52.134;5.578;2023-03-04T05:24:14;7.93;;;1.25;;
23720;SDS011;42950;52.134;5.578;2023-03-04T05:26:39;10.00;;;1.50;;
23720;SDS011;42950;52.134;5.578;2023-03-04T05:29:05;9.65;;;1.52;;
23720;SDS011;42950;52.134;5.578;2023-03-04T05:31:31;13.05;;;2.00;;
23720;SDS011;42950;52.134;5.578;2023-03-04T05:33:56;15.25;;;1.85;;
23720;SDS011;42950;52.134;5.578;2023-03-04T05:36:22;12.68;;;1.88;;
23720;SDS011;42950;52.134;5.578;2023-03-04T05:38:47;11.38;;;2.17;;
23720;SDS011;42950;52.134;5.578;2023-03-04T05:41:13;12.82;;;2.40;;
23720;SDS011;42950;52.134;5.578;2023-03-04T05:43:38;12.32;;;1.65;;
23720;SDS011;42950;52.134;5.578;2023-03-04T05:46:07;10.73;;;1.88;;
23720;SDS011;42950;52.134;5.578;2023-03-04T05:48:37;8.70;;;1.60;;
23720;SDS011;42950;52.134;5.578;2023-03-04T05:51:03;12.85;;;1.60;;
23720;SDS011;42950;52.134;5.578;2023-03-04T05:53:29;13.15;;;1.52;;
23720;SDS011;42950;52.134;5.578;2023-03-04T05:55:55;13.85;;;1.70;;
23720;SDS011;42950;52.134;5.578;2023-03-04T05:58:20;11.55;;;2.72;;
23720;SDS011;42950;52.134;5.578;2023-03-04T06:00:46;12.73;;;1.75;;
23720;SDS011;42950;52.134;5.578;2023-03-04T06:03:19;12.20;;;1.65;;
23720;SDS011;42950;52.134;5.578;2023-03-04T06:05:46;11.82;;;1.80;;
23720;SDS011;42950;52.134;5.578;2023-03-04T06:08:12;9.35;;;1.67;;
23720;SDS011;42950;52.134;5.578;2023-03-04T06:10:38;14.00;;;2.10;;
23720;SDS011;42950;52.134;5.578;2023-03-04T06:13:05;13.52;;;1.75;;
23720;SDS011;42950;52.134;5.578;2023-03-04T06:15:31;14.35;;;1.55;;
23720;SDS011;42950;52.134;5.578;2023-03-04T06:17:57;9.27;;;1.40;;
23720;SDS011;42950;52.134;5.578;2023-03-04T06:20:22;10.38;;;1.65;;
23720;SDS011;42950;52.134;5.578;2023-03-04T06:22:48;9.57;;;1.58;;
23720;SDS011;42950;52.134;5.578;2023-03-04T06:25:14;9.23;;;2.00;;
23720;SDS011;42950;52.134;5.578;2023-03-04T06:27:40;11.38;;;2.00;;
23720;SDS011;42950;52.134;5.578;2023-03-04T06:30:06;11.38;;;2.05;;
23720;SDS011;42950;52.134;5.578;2023-03-04T06:32:32;10.43;;;1.55;;
23720;SDS011;42950;52.134;5.578;2023-03-04T06:34:58;7.88;;;1.70;;
23720;SDS011;42950;52.134;5.578;2023-03-04T06:37:23;18.33;;;1.77;;
23720;SDS011;42950;52.134;5.578;2023-03-04T06:39:49;11.95;;;1.80;;
23720;SDS011;42950;52.134;5.578;2023-03-04T06:42:14;13.60;;;1.98;;
23720;SDS011;42950;52.134;5.578;2023-03-04T06:44:40;10.38;;;2.13;;
23720;SDS011;42950;52.134;5.578;2023-03-04T06:47:06;9.85;;;1.67;;
23720;SDS011;42950;52.134;5.578;2023-03-04T06:49:32;9.25;;;1.67;;
23720;SDS011;42950;52.134;5.578;2023-03-04T06:51:57;11.02;;;2.00;;
23720;SDS011;42950;52.134;5.578;2023-03-04T06:54:23;13.38;;;2.00;;
23720;SDS011;42950;52.134;5.578;2023-03-04T06:56:49;8.48;;;1.55;;
23720;SDS011;42950;52.134;5.578;2023-03-04T06:59:15;10.35;;;1.63;;
23720;SDS011;42950;52.134;5.578;2023-03-04T07:01:40;12.20;;;1.70;;
23720;SDS011;42950;52.134;5.578;2023-03-04T07:04:06;11.80;;;1.60;;
23720;SDS011;42950;52.134;5.578;2023-03-04T07:06:32;8.80;;;1.80;;
23720;SDS011;42950;52.134;5.578;2023-03-04T07:08:58;9.27;;;1.58;;
23720;SDS011;42950;52.134;5.578;2023-03-04T07:11:24;14.98;;;2.00;;
23720;SDS011;42950;52.134;5.578;2023-03-04T07:13:50;11.30;;;1.73;;
23720;SDS011;42950;52.134;5.578;2023-03-04T07:16:17;14.40;;;2.20;;
23720;SDS011;42950;52.134;5.578;2023-03-04T07:18:44;18.10;;;2.35;;
23720;SDS011;42950;52.134;5.578;2023-03-04T07:21:12;10.60;;;1.80;;
23720;SDS011;42950;52.134;5.578;2023-03-04T07:23:40;11.50;;;1.77;;
23720;SDS011;42950;52.134;5.578;2023-03-04T07:26:06;11.25;;;2.88;;
23720;SDS011;42950;52.134;5.578;2023-03-04T07:28:32;9.25;;;1.73;;
23720;SDS011;42950;52.134;5.578;2023-03-04T07:31:09;9.18;;;2.03;;
23720;SDS011;42950;52.134;5.578;2023-03-04T07:33:36;14.82;;;2.45;;
23720;SDS011;42950;52.134;5.578;2023-03-04T07:36:01;10.80;;;1.85;;
23720;SDS011;42950;52.134;5.578;2023-03-04T07:38:27;9.77;;;1.90;;
23720;SDS011;42950;52.134;5.578;2023-03-04T07:40:58;10.18;;;1.70;;
23720;SDS011;42950;52.134;5.578;2023-03-04T07:43:24;13.15;;;2.22;;
23720;SDS011;42950;52.134;5.578;2023-03-04T07:45:50;8.35;;;1.60;;
23720;SDS011;42950;52.134;5.578;2023-03-04T07:48:15;9.38;;;1.70;;
23720;SDS011;42950;52.134;5.578;2023-03-04T07:50:41;16.17;;;1.75;;
23720;SDS011;42950;52.134;5.578;2023-03-04T07:53:06;12.32;;;1.70;;
23720;SDS011;42950;52.134;5.578;2023-03-04T07:55:32;7.65;;;1.65;;
23720;SDS011;42950;52.134;5.578;2023-03-04T07:57:58;10.60;;;1.67;;
23720;SDS011;42950;52.134;5.578;2023-03-04T08:00:23;11.05;;;1.80;;
23720;SDS011;42950;52.134;5.578;2023-03-04T08:02:49;13.68;;;2.22;;
23720;SDS011;42950;52.134;5.578;2023-03-04T08:05:15;8.52;;;1.50;;
23720;SDS011;42950;52.134;5.578;2023-03-04T08:07:40;7.63;;;1.58;;
23720;SDS011;42950;52.134;5.578;2023-03-04T08:10:06;8.20;;;1.50;;
23720;SDS011;42950;52.134;5.578;2023-03-04T08:12:32;5.68;;;1.15;;
23720;SDS011;42950;52.134;5.578;2023-03-04T08:14:58;6.63;;;1.00;;
23720;SDS011;42950;52.134;5.578;2023-03-04T08:17:24;5.22;;;1.10;;
23720;SDS011;42950;52.134;5.578;2023-03-04T08:19:50;8.70;;;1.55;;
23720;SDS011;42950;52.134;5.578;2023-03-04T08:22:15;5.65;;;1.30;;
23720;SDS011;42950;52.134;5.578;2023-03-04T08:24:41;5.78;;;1.20;;
23720;SDS011;42950;52.134;5.578;2023-03-04T08:27:06;4.47;;;1.10;;
23720;SDS011;42950;52.134;5.578;2023-03-04T08:29:32;5.53;;;1.10;;
23720;SDS011;42950;52.134;5.578;2023-03-04T08:31:57;2.88;;;1.17;;
23720;SDS011;42950;52.134;5.578;2023-03-04T08:34:24;4.78;;;1.50;;
23720;SDS011;42950;52.134;5.578;2023-03-04T08:36:51;5.78;;;1.48;;
23720;SDS011;42950;52.134;5.578;2023-03-04T08:39:17;8.73;;;1.48;;
23720;SDS011;42950;52.134;5.578;2023-03-04T08:41:43;7.25;;;1.40;;
23720;SDS011;42950;52.134;5.578;2023-03-04T08:44:09;6.88;;;1.33;;
23720;SDS011;42950;52.134;5.578;2023-03-04T08:46:36;5.93;;;2.00;;
23720;SDS011;42950;52.134;5.578;2023-03-04T08:49:03;9.07;;;1.65;;
23720;SDS011;42950;52.134;5.578;2023-03-04T08:51:29;8.40;;;1.65;;
23720;SDS011;42950;52.134;5.578;2023-03-04T08:53:55;7.85;;;1.83;;
23720;SDS011;42950;52.134;5.578;2023-03-04T08:56:21;7.35;;;1.60;;
23720;SDS011;42950;52.134;5.578;2023-03-04T08:58:46;6.28;;;1.15;;
23720;SDS011;42950;52.134;5.578;2023-03-04T09:01:12;5.93;;;1.50;;
23720;SDS011;42950;52.134;5.578;2023-03-04T09:03:39;7.60;;;1.77;;
23720;SDS011;42950;52.134;5.578;2023-03-04T09:06:05;7.32;;;1.70;;
23720;SDS011;42950;52.134;5.578;2023-03-04T09:08:32;6.80;;;1.48;;
23720;SDS011;42950;52.134;5.578;2023-03-04T09:10:58;8.88;;;1.50;;
23720;SDS011;42950;52.134;5.578;2023-03-04T09:13:24;3.67;;;1.30;;
23720;SDS011;42950;52.134;5.578;2023-03-04T09:15:52;4.53;;;1.25;;
23720;SDS011;42950;52.134;5.578;2023-03-04T09:18:18;5.38;;;1.70;;
23720;SDS011;42950;52.134;5.578;2023-03-04T09:20:46;7.57;;;1.77;;
23720;SDS011;42950;52.134;5.578;2023-03-04T09:23:12;7.28;;;1.92;;
23720;SDS011;42950;52.134;5.578;2023-03-04T09:25:38;4.88;;;1.40;;
23720;SDS011;42950;52.134;5.578;2023-03-04T09:28:04;5.55;;;1.35;;
23720;SDS011;42950;52.134;5.578;2023-03-04T09:30:31;4.00;;;1.58;;
23720;SDS011;42950;52.134;5.578;2023-03-04T09:32:57;3.90;;;1.33;;
23720;SDS011;42950;52.134;5.578;2023-03-04T09:35:23;8.48;;;1.48;;
23720;SDS011;42950;52.134;5.578;2023-03-04T09:37:49;4.63;;;1.25;;
23720;SDS011;42950;52.134;5.578;2023-03-04T09:40:15;4.97;;;1.33;;
23720;SDS011;42950;52.134;5.578;2023-03-04T09:42:48;5.45;;;1.42;;
23720;SDS011;42950;52.134;5.578;2023-03-04T09:45:18;2.55;;;1.10;;
23720;SDS011;42950;52.134;5.578;2023-03-04T09:47:45;3.90;;;1.50;;
23720;SDS011;42950;52.134;5.578;2023-03-04T09:50:13;3.50;;;1.40;;
23720;SDS011;42950;52.134;5.578;2023-03-04T09:55:20;4.57;;;1.20;;
23720;SDS011;42950;52.134;5.578;2023-03-04T09:57:51;5.60;;;1.33;;
23720;SDS011;42950;52.134;5.578;2023-03-04T10:00:43;6.05;;;1.50;;
23720;SDS011;42950;52.134;5.578;2023-03-04T10:03:21;4.65;;;1.13;;
23720;SDS011;42950;52.134;5.578;2023-03-04T10:05:55;3.05;;;0.90;;
23720;SDS011;42950;52.134;5.578;2023-03-04T10:11:14;4.53;;;1.10;;
23720;SDS011;42950;52.134;5.578;2023-03-04T10:16:53;5.10;;;1.20;;
23720;SDS011;42950;52.134;5.578;2023-03-04T10:19:27;7.40;;;1.40;;
23720;SDS011;42950;52.134;5.578;2023-03-04T10:22:05;4.15;;;1.30;;
23720;SDS011;42950;52.134;5.578;2023-03-04T10:24:47;5.07;;;1.20;;
23720;SDS011;42950;52.134;5.578;2023-03-04T10:27:14;2.67;;;1.25;;
23720;SDS011;42950;52.134;5.578;2023-03-04T10:29:42;4.60;;;1.30;;
23720;SDS011;42950;52.134;5.578;2023-03-04T10:32:12;4.45;;;1.05;;
23720;SDS011;42950;52.134;5.578;2023-03-04T10:34:40;4.13;;;1.10;;
23720;SDS011;42950;52.134;5.578;2023-03-04T10:37:06;6.07;;;1.20;;
23720;SDS011;42950;52.134;5.578;2023-03-04T10:39:34;4.68;;;1.27;;
23720;SDS011;42950;52.134;5.578;2023-03-04T10:44:34;2.65;;;0.90;;
23720;SDS011;42950;52.134;5.578;2023-03-04T10:47:08;3.30;;;1.10;;
23720;SDS011;42950;52.134;5.578;2023-03-04T10:49:36;3.05;;;0.98;;
23720;SDS011;42950;52.134;5.578;2023-03-04T10:52:34;2.75;;;0.90;;
23720;SDS011;42950;52.134;5.578;2023-03-04T10:55:17;6.00;;;1.15;;
23720;SDS011;42950;52.134;5.578;2023-03-04T10:57:48;4.32;;;1.00;;
23720;SDS011;42950;52.134;5.578;2023-03-04T11:00:24;3.47;;;0.90;;
23720;SDS011;42950;52.134;5.578;2023-03-04T11:06:07;2.85;;;0.73;;
23720;SDS011;42950;52.134;5.578;2023-03-04T11:08:43;3.65;;;1.30;;
23720;SDS011;42950;52.134;5.578;2023-03-04T11:11:21;3.25;;;1.00;;
23720;SDS011;42950;52.134;5.578;2023-03-04T11:13:58;4.28;;;1.10;;
23720;SDS011;42950;52.134;5.578;2023-03-04T11:16:28;3.97;;;1.17;;
23720;SDS011;42950;52.134;5.578;2023-03-04T11:19:12;2.28;;;0.90;;
23720;SDS011;42950;52.134;5.578;2023-03-04T11:21:40;5.38;;;1.60;;
23720;SDS011;42950;52.134;5.578;2023-03-04T11:26:47;2.80;;;1.08;;
23720;SDS011;42950;52.134;5.578;2023-03-04T11:29:24;2.60;;;1.30;;
23720;SDS011;42950;52.134;5.578;2023-03-04T11:32:14;3.00;;;0.77;;
23720;SDS011;42950;52.134;5.578;2023-03-04T11:37:38;11.60;;;1.45;;
23720;SDS011;42950;52.134;5.578;2023-03-04T11:42:42;6.97;;;1.55;;
23720;SDS011;42950;52.134;5.578;2023-03-04T11:45:13;4.97;;;1.45;;
23720;SDS011;42950;52.134;5.578;2023-03-04T11:47:56;7.43;;;1.70;;
23720;SDS011;42950;52.134;5.578;2023-03-04T11:50:48;6.22;;;1.13;;
23720;SDS011;42950;52.134;5.578;2023-03-04T12:01:25;8.20;;;2.00;;
23720;SDS011;42950;52.134;5.578;2023-03-04T12:15:08;8.93;;;2.28;;
23720;SDS011;42950;52.134;5.578;2023-03-04T12:20:31;9.57;;;2.15;;
23720;SDS011;42950;52.134;5.578;2023-03-04T12:23:05;11.57;;;1.90;;
23720;SDS011;42950;52.134;5.578;2023-03-04T12:39:29;12.95;;;2.55;;
23720;SDS011;42950;52.134;5.578;2023-03-04T12:44:23;12.13;;;2.40;;
23720;SDS011;42950;52.134;5.578;2023-03-04T12:49:45;15.32;;;2.17;;
23720;SDS011;42950;52.134;5.578;2023-03-04T12:52:26;10.05;;;1.65;;
23720;SDS011;42950;52.134;5.578;2023-03-04T12:55:15;8.48;;;1.60;;
23720;SDS011;42950;52.134;5.578;2023-03-04T12:57:42;9.43;;;2.72;;
23720;SDS011;42950;52.134;5.578;2023-03-04T13:03:20;13.65;;;2.50;;
23720;SDS011;42950;52.134;5.578;2023-03-04T13:06:06;11.65;;;2.35;;
23720;SDS011;42950;52.134;5.578;2023-03-04T13:11:44;10.48;;;2.42;;
23720;SDS011;42950;52.134;5.578;2023-03-04T13:16:46;10.80;;;2.28;;
23720;SDS011;42950;52.134;5.578;2023-03-04T13:24:51;8.88;;;1.90;;
23720;SDS011;42950;52.134;5.578;2023-03-04T13:38:20;11.07;;;2.30;;
23720;SDS011;42950;52.134;5.578;2023-03-04T13:43:48;13.18;;;2.28;;
23720;SDS011;42950;52.134;5.578;2023-03-04T13:53:53;10.27;;;2.10;;
23720;SDS011;42950;52.134;5.578;2023-03-04T13:56:21;11.32;;;1.50;;
23720;SDS011;42950;52.134;5.578;2023-03-04T14:04:31;7.97;;;1.65;;
23720;SDS011;42950;52.134;5.578;2023-03-04T14:06:58;8.48;;;1.30;;
23720;SDS011;42950;52.134;5.578;2023-03-04T14:09:29;5.25;;;1.30;;
23720;SDS011;42950;52.134;5.578;2023-03-04T14:12:00;6.85;;;1.27;;
23720;SDS011;42950;52.134;5.578;2023-03-04T14:14:35;5.00;;;0.98;;
23720;SDS011;42950;52.134;5.578;2023-03-04T14:17:16;3.60;;;1.17;;
23720;SDS011;42950;52.134;5.578;2023-03-04T14:19:48;7.30;;;1.50;;
23720;SDS011;42950;52.134;5.578;2023-03-04T14:25:22;4.50;;;0.90;;
23720;SDS011;42950;52.134;5.578;2023-03-04T14:27:49;2.90;;;1.00;;
23720;SDS011;42950;52.134;5.578;2023-03-04T14:30:27;5.30;;;1.20;;
23720;SDS011;42950;52.134;5.578;2023-03-04T14:32:54;4.35;;;1.00;;
23720;SDS011;42950;52.134;5.578;2023-03-04T14:35:26;10.27;;;0.98;;
23720;SDS011;42950;52.134;5.578;2023-03-04T14:37:56;4.25;;;0.95;;
23720;SDS011;42950;52.134;5.578;2023-03-04T14:40:27;4.72;;;0.82;;
23720;SDS011;42950;52.134;5.578;2023-03-04T14:43:01;3.80;;;0.82;;
23720;SDS011;42950;52.134;5.578;2023-03-04T14:45:35;6.15;;;0.90;;
23720;SDS011;42950;52.134;5.578;2023-03-04T14:48:03;4.80;;;0.73;;
23720;SDS011;42950;52.134;5.578;2023-03-04T14:50:30;5.53;;;1.10;;
23720;SDS011;42950;52.134;5.578;2023-03-04T14:53:04;5.45;;;1.38;;
23720;SDS011;42950;52.134;5.578;2023-03-04T14:55:35;7.65;;;1.52;;
23720;SDS011;42950;52.134;5.578;2023-03-04T14:58:08;7.57;;;1.10;;
23720;SDS011;42950;52.134;5.578;2023-03-04T15:00:43;6.38;;;1.23;;
23720;SDS011;42950;52.134;5.578;2023-03-04T15:03:22;9.82;;;1.42;;
23720;SDS011;42950;52.134;5.578;2023-03-04T15:05:49;8.15;;;1.13;;
23720;SDS011;42950;52.134;5.578;2023-03-04T15:08:19;9.63;;;1.73;;
23720;SDS011;42950;52.134;5.578;2023-03-04T15:11:00;8.93;;;1.70;;
23720;SDS011;42950;52.134;5.578;2023-03-04T15:16:07;10.18;;;2.55;;
23720;SDS011;42950;52.134;5.578;2023-03-04T15:18:34;10.05;;;2.33;;
23720;SDS011;42950;52.134;5.578;2023-03-04T15:23:44;6.63;;;1.70;;
23720;SDS011;42950;52.134;5.578;2023-03-04T15:26:10;12.35;;;2.22;;
23720;SDS011;42950;52.134;5.578;2023-03-04T15:28:37;11.18;;;1.60;;
23720;SDS011;42950;52.134;5.578;2023-03-04T15:31:04;9.13;;;1.85;;
23720;SDS011;42950;52.134;5.578;2023-03-04T15:33:30;8.05;;;2.08;;
23720;SDS011;42950;52.134;5.578;2023-03-04T15:35:59;6.55;;;1.42;;
23720;SDS011;42950;52.134;5.578;2023-03-04T15:38:26;10.50;;;1.38;;
23720;SDS011;42950;52.134;5.578;2023-03-04T15:40:53;6.22;;;1.70;;
23720;SDS011;42950;52.134;5.578;2023-03-04T15:43:22;4.60;;;1.00;;
23720;SDS011;42950;52.134;5.578;2023-03-04T15:45:48;3.80;;;0.70;;
23720;SDS011;42950;52.134;5.578;2023-03-04T15:48:15;5.07;;;1.00;;
23720;SDS011;42950;52.134;5.578;2023-03-04T15:51:01;6.82;;;1.20;;
23720;SDS011;42950;52.134;5.578;2023-03-04T15:55:57;5.47;;;1.13;;
23720;SDS011;42950;52.134;5.578;2023-03-04T15:58:23;4.88;;;1.15;;
23720;SDS011;42950;52.134;5.578;2023-03-04T16:00:50;4.55;;;1.27;;
23720;SDS011;42950;52.134;5.578;2023-03-04T16:03:16;4.43;;;1.40;;
23720;SDS011;42950;52.134;5.578;2023-03-04T16:05:44;4.68;;;1.02;;
23720;SDS011;42950;52.134;5.578;2023-03-04T16:08:12;3.55;;;0.98;;
23720;SDS011;42950;52.134;5.578;2023-03-04T16:10:39;7.18;;;1.48;;
23720;SDS011;42950;52.134;5.578;2023-03-04T16:13:10;7.90;;;1.38;;
23720;SDS011;42950;52.134;5.578;2023-03-04T16:15:41;17.83;;;1.95;;
23720;SDS011;42950;52.134;5.578;2023-03-04T16:18:07;10.82;;;1.52;;
23720;SDS011;42950;52.134;5.578;2023-03-04T16:20:34;9.20;;;1.65;;
23720;SDS011;42950;52.134;5.578;2023-03-04T16:23:00;9.45;;;1.67;;
23720;SDS011;42950;52.134;5.578;2023-03-04T16:25:27;5.00;;;1.20;;
23720;SDS011;42950;52.134;5.578;2023-03-04T16:27:54;9.63;;;1.40;;
23720;SDS011;42950;52.134;5.578;2023-03-04T16:30:21;12.35;;;1.73;;
23720;SDS011;42950;52.134;5.578;2023-03-04T16:32:48;8.00;;;1.42;;
23720;SDS011;42950;52.134;5.578;2023-03-04T16:35:14;10.82;;;2.05;;
23720;SDS011;42950;52.134;5.578;2023-03-04T16:37:40;11.27;;;1.30;;
23720;SDS011;42950;52.134;5.578;2023-03-04T16:40:08;12.48;;;2.00;;
23720;SDS011;42950;52.134;5.578;2023-03-04T16:42:37;11.10;;;2.10;;
23720;SDS011;42950;52.134;5.578;2023-03-04T16:45:04;9.38;;;1.90;;
23720;SDS011;42950;52.134;5.578;2023-03-04T16:47:30;9.90;;;2.85;;